Homestead Gen Aviation, FL

6:49 PM EST on February 21, 2017 (GMT -0500)
Skydive Miami | | Change Station

Elev 9 ft 25.50 °N, 80.55 °W | Updated 2 seconds ago

Mostly Cloudy
Mostly Cloudy
74.8 °F
Feels Like 77 °F
N
4.0
Wind Variable Wind from East
Gusts 5.4 mph

Today
High -- | Low -- °F
--% Chance of Precip.
Yesterday
High -- | Low -- °F
Precip. -- in
Pressure 29.98 in
Visibility 9.0 miles
Clouds Scattered Clouds 3800 ft
Heat Index 77 °F
Dew Point 62 °F
Humidity 65%
Rainfall 0.00 in
Snow Depth Not available.
6:52 AM 6:19 PM
Waning Crescent, 22% visible
METAR KHST 212258Z AUTO 09007KT 9SM SCT038 23/19 A2997 RMK AO2 SLP152 T02340186
Pressure 29.98 in
Visibility 9.0 miles
Clouds Scattered Clouds 3800 ft
Heat Index 77 °F
Dew Point 62 °F
Humidity 65%
Rainfall 0.00 in
Snow Depth Not available.
6:52 AM 6:19 PM
Waning Crescent, 22% visible
METAR KHST 212258Z AUTO 09007KT 9SM SCT038 23/19 A2997 RMK AO2 SLP152 T02340186

Get Your Daily Forecast Email!

Thanks for signing up!

Be on the lookout for a verification email in your inbox.

You'll start receiving the daily forecast at 8 AM.

×

10-Day Weather Forecast

Almanac

Astronomy

Feb. 21, 2017 Rise Set
Actual Time
Civil Twilight
Nautical Twilight
Astronomical Twilight
Moon
Length of Visible Light
Length of Day
Tomorrow will be .
, % of the Moon is Illuminated

Today's Extremes

State Highs State Lows

Community

WunderPhotos

Upload Photos

1,962,540 photos uploaded!

WunderBlog® & News

Nearby

Air Quality

  Air Quality AQ Index Pollutant
Not available.

Snow Depth

Station Depth Elevation

Earthquake Activity

City Distance Mag. Time & Date
Minimum magnitude displayed is 2.5.

Coastal Water Temperatures

Place Temperature

Stations

Nearby Weather Stations

Station Location Temp. Windchill Dew Point Humidity Wind Precip. Elev Updated Type
                   

Watches & Warnings

There are currently no watches in effect.